Kalocsa — WRP — position and weather

sailwx.info

Track history (hours):
 
Tides and Currents Weather Stations Pressure Air Temp Water Temp Dewpoint Dewpoint Depression Visibility Wind Speed Wind Dir Waves Ship Positions

Kalocsa

Last reported at 2017-Oct-12 08:39 UTC. Time now 2017-Oct-18 02:32 UTC.
Position N 44°18' E 028°03'.

Length 267 m; draft 2.3 m.

Type: Ship. MMSI: 211064779.

Date/timePositionNaut miles runAvg speedWind from/ knotsBaromVisibWave heightAir tempDewpointWater temp
2017-Oct-12 08:39N 44°18' E 028°03'1 4.4
2017-Oct-12 08:30N 44°18' E 028°04'2 4.9
2017-Oct-12 08:00N 44°16' E 028°07'3 5.3
2017-Oct-12 07:30N 44°16' E 028°10'3 5.3
2017-Oct-12 07:00N 44°15' E 028°14'3 5.4
2017-Oct-12 06:30N 44°15' E 028°18'3 5.1
2017-Oct-12 06:00N 44°15' E 028°21'3 5.3
2017-Oct-12 05:30N 44°12' E 028°23'3 5.3
2017-Oct-12 05:00N 44°10' E 028°25'6 4.7
2017-Oct-12 03:44N 44°06' E 028°31'1 5.5
2017-Oct-12 03:30N 44°06' E 028°33'3 5.3
2017-Oct-12 03:00N 44°06' E 028°36'1 1.6
2017-Oct-12 02:30N 44°06' E 028°37'1 2.3
2017-Oct-12 02:00N 44°06' E 028°39'1 1.3
2017-Oct-12 01:30N 44°07' E 028°39'0 0.3
2017-Oct-12 01:00N 44°07' E 028°39'0 0.0
2017-Oct-12 00:30N 44°07' E 028°39'0 0.0
2017-Oct-12 00:00N 44°07' E 028°39'0 0.0
2017-Oct-11 23:30N 44°07' E 028°39'0 0.0
2017-Oct-11 23:00N 44°07' E 028°39'0 0.0
2017-Oct-11 22:30N 44°07' E 028°39'0 0.0
2017-Oct-11 22:01N 44°07' E 028°39'0 0.0
2017-Oct-11 21:30N 44°07' E 028°39'0 0.0
2017-Oct-11 21:00N 44°07' E 028°39'0 0.0
2017-Oct-11 20:30N 44°07' E 028°39'0 0.0
2017-Oct-11 20:00N 44°07' E 028°39'0 0.0
2017-Oct-11 19:30N 44°07' E 028°39'0 0.0
2017-Oct-11 19:01N 44°07' E 028°39'0 0.0
2017-Oct-11 18:30N 44°07' E 028°39'0 0.0
2017-Oct-11 18:00N 44°07' E 028°39'0 0.0
2017-Oct-11 17:31N 44°07' E 028°39'0 0.0
2017-Oct-11 17:00N 44°07' E 028°39'0 0.0
2017-Oct-11 00:00N 44°07' E 028°39'0 0.0
2017-Oct-10 23:30N 44°07' E 028°39'0 0.0
2017-Oct-10 23:00N 44°07' E 028°39'0 0.0
2017-Oct-10 22:30N 44°07' E 028°39'0 0.0
2017-Oct-10 22:00N 44°07' E 028°39'0 0.0
2017-Oct-10 21:31N 44°07' E 028°39'0 0.0
2017-Oct-10 21:00N 44°07' E 028°39'0 0.0
2017-Oct-10 20:31N 44°07' E 028°39'0 0.0
2017-Oct-10 20:00N 44°07' E 028°39'0 0.0
2017-Oct-10 19:30N 44°07' E 028°39'0 0.0
2017-Oct-10 19:00N 44°07' E 028°39'0 0.0
2017-Oct-10 18:30N 44°07' E 028°39'0 0.0
2017-Oct-10 18:00N 44°07' E 028°39'0 0.0
2017-Oct-10 17:31N 44°07' E 028°39'0 0.0
2017-Oct-10 17:00N 44°07' E 028°39'0 0.0
2017-Oct-10 16:30N 44°07' E 028°39'0 0.0
2017-Oct-10 16:00N 44°07' E 028°39'0 0.0
2017-Oct-10 15:30N 44°07' E 028°39'0 0.0
2017-Oct-10 15:00N 44°07' E 028°39'0 0.0
2017-Oct-10 14:00N 44°07' E 028°39'0 0.0
2017-Oct-10 13:30N 44°07' E 028°39'0 0.0
2017-Oct-10 13:00N 44°07' E 028°39'0 0.0
2017-Oct-10 12:30N 44°07' E 028°39'0 0.0
2017-Oct-10 12:00N 44°07' E 028°39'0 0.0
2017-Oct-10 11:30N 44°07' E 028°39'0 0.0
2017-Oct-10 11:00N 44°07' E 028°39'0 0.0
2017-Oct-10 10:30N 44°07' E 028°39'0 0.0
2017-Oct-10 10:00N 44°07' E 028°39'0 0.0
2017-Oct-10 09:30N 44°07' E 028°39'0 0.0
2017-Oct-10 09:00N 44°07' E 028°39'0 0.0
2017-Oct-10 08:30N 44°07' E 028°39'0 0.0
2017-Oct-10 08:00N 44°07' E 028°39'0 0.2
2017-Oct-10 07:30N 44°07' E 028°39'1 1.6
2017-Oct-10 07:01N 44°06' E 028°39'1 2.5
2017-Oct-10 06:30N 44°06' E 028°37'0 0.3
2017-Oct-10 06:00N 44°06' E 028°37'2 3.4
2017-Oct-10 05:30N 44°06' E 028°35'3 5.2
2017-Oct-10 04:59N 44°06' E 028°31'3 4.9
2017-Oct-10 04:21N 44°07' E 028°27'2 5.5
2017-Oct-10 03:57N 44°09' E 028°26'2 5.3
2017-Oct-10 03:30N 44°11' E 028°24'3 5.3
2017-Oct-10 03:00N 44°13' E 028°23'3 5.0
2017-Oct-10 02:31N 44°15' E 028°20'3 5.4
2017-Oct-10 02:00N 44°15' E 028°16'3 5.3
2017-Oct-10 01:31N 44°16' E 028°12'3 5.3
2017-Oct-10 01:00N 44°16' E 028°09'3 5.3
2017-Oct-10 00:30N 44°17' E 028°05'6 2.7
2017-Oct-09 22:16N 44°22' E 028°02'0 0.0
2017-Oct-09 21:55N 44°22' E 028°02'0 0.1
2017-Oct-09 21:30N 44°22' E 028°02'0 0.9
2017-Oct-09 20:56N 44°23' E 028°02'4 3.1
2017-Oct-09 19:39N 44°19' E 028°03'0 2.7
2017-Oct-09 19:29N 44°18' E 028°03'2 5.2
2017-Oct-09 19:00N 44°16' E 028°05'3 5.5
2017-Oct-09 18:30N 44°16' E 028°09'3 5.3
2017-Oct-09 18:01N 44°16' E 028°13'3 5.4
2017-Oct-09 17:30N 44°15' E 028°17'3 5.3
2017-Oct-09 17:00N 44°15' E 028°20'3 5.3
2017-Oct-09 16:30N 44°13' E 028°23'3 5.3
2017-Oct-09 16:00N 44°11' E 028°24'6 4.8
2017-Oct-09 14:40N 44°06' E 028°30'1 5.4
2017-Oct-09 14:29N 44°06' E 028°32'3 5.5
2017-Oct-09 14:01N 44°06' E 028°35'1 2.7
2017-Oct-09 13:30N 44°06' E 028°37'0 0.8
2017-Oct-09 13:01N 44°06' E 028°38'0 0.0
2017-Oct-09 12:30N 44°06' E 028°38'0 0.6
2017-Oct-09 12:01N 44°06' E 028°38'1 2.3
2017-Oct-09 11:30N 44°07' E 028°39'0 0.0
2017-Oct-09 11:00N 44°07' E 028°39'0 0.0
2017-Oct-09 10:30N 44°07' E 028°39'0 0.0
2017-Oct-09 10:00N 44°07' E 028°39'0 0.0
2017-Oct-09 09:30N 44°07' E 028°39'0 0.0
2017-Oct-09 09:00N 44°07' E 028°39'0 0.3
2017-Oct-09 08:31N 44°07' E 028°39'0 0.0
2017-Oct-09 08:00N 44°07' E 028°39'0 0.0
2017-Oct-09 07:30N 44°07' E 028°39'0 0.0
2017-Oct-09 07:00N 44°07' E 028°39'0 0.0
2017-Oct-09 06:30N 44°07' E 028°39'0 0.0
2017-Oct-09 06:00N 44°07' E 028°39'0 0.0
2017-Oct-09 05:30N 44°07' E 028°39'0 0.0
2017-Oct-09 05:01N 44°07' E 028°39'0 0.0
2017-Oct-09 04:30N 44°07' E 028°39'0 0.0
2017-Oct-09 04:00N 44°07' E 028°39'0 0.0
2017-Oct-09 03:31N 44°07' E 028°39'0 0.0
2017-Oct-09 03:00N 44°07' E 028°39'0 0.0
2017-Oct-09 02:30N 44°07' E 028°39'0 0.0
2017-Oct-09 02:00N 44°07' E 028°39'0 0.0
2017-Oct-09 01:30N 44°07' E 028°39'0 0.0
2017-Oct-09 01:00N 44°07' E 028°39'0 0.0
2017-Oct-09 00:30N 44°07' E 028°39'0 0.0
2017-Oct-09 00:00N 44°07' E 028°39'0 0.0
2017-Oct-08 23:30N 44°07' E 028°39'0 0.0
2017-Oct-08 23:00N 44°07' E 028°39'0 0.0
2017-Oct-08 22:30N 44°07' E 028°39'0 0.0
2017-Oct-08 22:01N 44°07' E 028°39'0 0.0
2017-Oct-08 21:31N 44°07' E 028°39'0 0.0
2017-Oct-08 21:00N 44°07' E 028°39'0 0.0
2017-Oct-08 20:30N 44°07' E 028°39'0 0.0
2017-Oct-08 20:00N 44°07' E 028°39'0 0.0
2017-Oct-08 19:30N 44°07' E 028°39'0 0.0
2017-Oct-08 19:00N 44°07' E 028°39'0 0.0
2017-Oct-08 18:30N 44°07' E 028°39'0 0.0
2017-Oct-08 18:00N 44°07' E 028°39'0 0.0
2017-Oct-08 17:30N 44°07' E 028°39'0 0.0
2017-Oct-08 17:00N 44°07' E 028°39'0 0.0
2017-Oct-08 16:31N 44°07' E 028°39'0 0.0
2017-Oct-08 16:00N 44°07' E 028°39'0 0.0
2017-Oct-08 15:30N 44°07' E 028°39'0 0.0
2017-Oct-08 15:00N 44°07' E 028°39'0 0.0
2017-Oct-08 14:31N 44°07' E 028°39'0 0.0
2017-Oct-08 14:01N 44°07' E 028°39'0 0.0
2017-Oct-08 13:30N 44°07' E 028°39'0 0.0
2017-Oct-08 13:01N 44°07' E 028°39'0 0.0
2017-Oct-08 12:30N 44°07' E 028°39'0 0.0
2017-Oct-08 12:01N 44°07' E 028°39'0 0.0
2017-Oct-08 11:30N 44°07' E 028°39'0 0.0
2017-Oct-08 11:01N 44°07' E 028°39'0 0.0
2017-Oct-08 10:31N 44°07' E 028°39'0 0.0
2017-Oct-08 10:00N 44°07' E 028°39'0 0.0
2017-Oct-08 09:30N 44°07' E 028°39'0 0.0
2017-Oct-08 09:00N 44°07' E 028°39'0 0.0
2017-Oct-08 08:31N 44°07' E 028°39'0 0.0
2017-Oct-08 08:01N 44°07' E 028°39'0 0.0
2017-Oct-08 07:30N 44°07' E 028°39'0 0.0
2017-Oct-08 07:01N 44°07' E 028°39'0 0.0
2017-Oct-08 06:30N 44°07' E 028°39'0 0.0
2017-Oct-08 06:00N 44°07' E 028°39'0 0.0
2017-Oct-08 05:30N 44°07' E 028°39'0 0.0
2017-Oct-08 05:00N 44°07' E 028°39'0 0.0
2017-Oct-08 04:30N 44°07' E 028°39'0 0.0
2017-Oct-08 04:00N 44°07' E 028°39'0 0.0
2017-Oct-08 03:31N 44°07' E 028°39'0 0.0
2017-Oct-08 03:00N 44°07' E 028°39'0 0.0
2017-Oct-08 02:31N 44°07' E 028°39'0 0.0
2017-Oct-08 02:01N 44°07' E 028°39'0 0.0
2017-Oct-08 01:30N 44°07' E 028°39'0 0.0
2017-Oct-08 01:01N 44°07' E 028°39'0 0.0
2017-Oct-08 00:31N 44°07' E 028°39'0 0.0
2017-Oct-08 00:00N 44°07' E 028°39'0 0.0
2017-Oct-07 23:30N 44°07' E 028°39'0 0.0
2017-Oct-07 23:00N 44°07' E 028°39'0 0.0
2017-Oct-07 22:30N 44°07' E 028°39'0 0.0
2017-Oct-07 22:00N 44°07' E 028°39'0 0.0
2017-Oct-07 21:30N 44°07' E 028°39'0 0.0
2017-Oct-07 21:00N 44°07' E 028°39'0 0.0
2017-Oct-07 20:30N 44°07' E 028°39'0 0.0
2017-Oct-07 20:00N 44°07' E 028°39'0 0.0
2017-Oct-07 19:31N 44°07' E 028°39'0 0.0
2017-Oct-07 19:00N 44°07' E 028°39'0 0.0
2017-Oct-07 18:30N 44°07' E 028°39'0 0.0
2017-Oct-07 18:00N 44°07' E 028°39'0 0.0
2017-Oct-07 17:30N 44°07' E 028°39'0 0.0
2017-Oct-07 17:00N 44°07' E 028°39'0 0.0
2017-Oct-07 16:30N 44°07' E 028°39'0 0.0
2017-Oct-07 16:00N 44°07' E 028°39'0 0.0
2017-Oct-07 15:30N 44°07' E 028°39'0 0.0
2017-Oct-07 15:00N 44°07' E 028°39'0 0.0
2017-Oct-07 14:30N 44°07' E 028°39'0 0.0
2017-Oct-07 14:00N 44°07' E 028°39'0 0.0
2017-Oct-07 13:30N 44°07' E 028°39'0 0.0
2017-Oct-07 13:00N 44°07' E 028°39'0 0.0
2017-Oct-07 12:30N 44°07' E 028°39'0 0.0
2017-Oct-07 12:00N 44°07' E 028°39'0 0.0
2017-Oct-07 11:30N 44°07' E 028°39'0 0.0
2017-Oct-07 11:00N 44°07' E 028°39'0 0.0
2017-Oct-07 10:30N 44°07' E 028°39'0 0.0
2017-Oct-07 10:00N 44°07' E 028°39'0 0.0
2017-Oct-07 09:30N 44°07' E 028°39'0 0.0
2017-Oct-07 09:00N 44°07' E 028°39'0 0.0
2017-Oct-07 08:30N 44°07' E 028°39'0 0.0
2017-Oct-07 08:00N 44°07' E 028°39'0 0.0
2017-Oct-07 07:30N 44°07' E 028°39'0 0.0
2017-Oct-07 07:01N 44°07' E 028°39'0 0.0
2017-Oct-07 06:30N 44°07' E 028°39'0 0.0
2017-Oct-07 06:01N 44°07' E 028°39'0 0.0
2017-Oct-07 05:30N 44°07' E 028°39'0 0.0
2017-Oct-07 05:00N 44°07' E 028°39'0 0.0
2017-Oct-07 04:31N 44°07' E 028°39'0 0.0
2017-Oct-07 04:00N 44°07' E 028°39'0 0.0
2017-Oct-07 03:30N 44°07' E 028°39'0 0.0
2017-Oct-07 03:00N 44°07' E 028°39'0 0.0
2017-Oct-07 02:30N 44°07' E 028°39'0 0.0
2017-Oct-07 02:00N 44°07' E 028°39'0 0.0
2017-Oct-07 01:30N 44°07' E 028°39'0 0.0
2017-Oct-07 01:00N 44°07' E 028°39'0 0.0
2017-Oct-07 00:30N 44°07' E 028°39'0 0.0
2017-Oct-07 00:00N 44°07' E 028°39'0 0.0
2017-Oct-06 23:30N 44°07' E 028°39'0 0.0
2017-Oct-06 23:00N 44°07' E 028°39'0 0.0
2017-Oct-06 22:30N 44°07' E 028°39'0 0.0
2017-Oct-06 22:00N 44°07' E 028°39'0 0.0
2017-Oct-06 21:31N 44°07' E 028°39'0 0.0
2017-Oct-06 21:00N 44°07' E 028°39'0 0.0
2017-Oct-06 20:30N 44°07' E 028°39'0 0.0
2017-Oct-06 20:00N 44°07' E 028°39'0 0.0
2017-Oct-06 19:30N 44°07' E 028°39'0 0.0
2017-Oct-06 19:00N 44°07' E 028°39'0 0.0
2017-Oct-06 18:30N 44°07' E 028°39'0 0.0
2017-Oct-06 18:00N 44°07' E 028°39'0 0.0
2017-Oct-06 17:30N 44°07' E 028°39'0 0.0
2017-Oct-06 17:00N 44°07' E 028°39'0 0.0
2017-Oct-06 16:30N 44°07' E 028°39'0 0.0
2017-Oct-06 16:01N 44°07' E 028°39'0 0.0
2017-Oct-06 15:30N 44°07' E 028°39'0 0.0
2017-Oct-06 15:00N 44°07' E 028°39'0 0.0
2017-Oct-06 14:30N 44°07' E 028°39'0 0.0
2017-Oct-06 14:00N 44°07' E 028°39'0 0.0
2017-Oct-06 13:30N 44°07' E 028°39'0 0.0
2017-Oct-06 13:00N 44°07' E 028°39'0 0.0
2017-Oct-06 12:30N 44°07' E 028°39'0 0.0
2017-Oct-06 12:00N 44°07' E 028°39'0 0.1
2017-Oct-06 11:31N 44°07' E 028°39'0 0.0
2017-Oct-06 11:00N 44°07' E 028°39'1 1.1
2017-Oct-06 10:30N 44°06' E 028°39'1 2.4
2017-Oct-06 10:00N 44°06' E 028°37'0 0.1
2017-Oct-06 09:30N 44°06' E 028°37'1 1.0
2017-Oct-06 09:00N 44°06' E 028°36'0 0.2
2017-Oct-06 08:30N 44°06' E 028°36'2 4.5
2017-Oct-06 08:00N 44°06' E 028°33'5 4.9
2017-Oct-06 07:01N 44°07' E 028°27'2 5.1
2017-Oct-06 06:34N 44°09' E 028°26'1 5.0
2017-Oct-06 06:22N 44°10' E 028°25'2 5.0
2017-Oct-06 05:57N 44°12' E 028°24'2 5.0
2017-Oct-06 05:30N 44°14' E 028°22'2 4.8
2017-Oct-06 05:01N 44°15' E 028°19'3 5.2
2017-Oct-06 04:26N 44°15' E 028°15'2 5.1
2017-Oct-06 04:00N 44°16' E 028°12'3 5.1
2017-Oct-06 03:31N 44°16' E 028°09'3 5.2
2017-Oct-06 03:00N 44°17' E 028°05'2 3.3
2017-Oct-06 02:30N 44°18' E 028°03'5 1.3
2017-Oct-05 22:56N 44°22' E 028°02'4 3.3
2017-Oct-05 21:46N 44°19' E 028°03'1 2.9
2017-Oct-05 21:27N 44°18' E 028°03'1 2.4
2017-Oct-05 20:59N 44°17' E 028°04'2 4.2
2017-Oct-05 20:31N 44°16' E 028°07'3 5.1
2017-Oct-05 20:00N 44°16' E 028°11'3 5.3
2017-Oct-05 19:31N 44°15' E 028°14'3 5.4
2017-Oct-05 19:00N 44°15' E 028°18'3 5.0
2017-Oct-05 18:31N 44°15' E 028°21'2 5.0
2017-Oct-05 18:00N 44°12' E 028°23'2 4.8
2017-Oct-05 17:30N 44°10' E 028°25'4 4.9
2017-Oct-05 16:46N 44°07' E 028°27'6 4.8
2017-Oct-05 15:30N 44°06' E 028°35'2 3.2
2017-Oct-05 15:00N 44°06' E 028°37'1 2.3
2017-Oct-05 14:30N 44°06' E 028°39'1 1.5
2017-Oct-05 14:00N 44°07' E 028°39'0 0.0
2017-Oct-05 13:30N 44°07' E 028°39'0 0.0
2017-Oct-05 13:00N 44°07' E 028°39'0 0.0
2017-Oct-05 12:31N 44°07' E 028°39'0 0.2
2017-Oct-05 12:00N 44°07' E 028°39'0 0.0
2017-Oct-05 11:31N 44°07' E 028°39'0 0.0
2017-Oct-05 11:00N 44°07' E 028°39'0 0.0
2017-Oct-05 10:30N 44°07' E 028°39'0 0.0
2017-Oct-05 10:01N 44°07' E 028°39'0 0.0
2017-Oct-05 09:30N 44°07' E 028°39'0 0.0
2017-Oct-05 09:00N 44°07' E 028°39'0 0.0
2017-Oct-05 08:30N 44°07' E 028°39'0 0.0
2017-Oct-05 08:01N 44°07' E 028°39'0 0.0
2017-Oct-05 07:31N 44°07' E 028°39'0 0.0
2017-Oct-05 07:00N 44°07' E 028°39'0 0.0
2017-Oct-05 06:30N 44°07' E 028°39'0 0.0
2017-Oct-05 06:00N 44°07' E 028°39'0 0.0
2017-Oct-05 05:30N 44°07' E 028°39'0 0.0
2017-Oct-05 05:00N 44°07' E 028°39'0 0.0
2017-Oct-05 04:30N 44°07' E 028°39'0 0.0
2017-Oct-05 04:01N 44°07' E 028°39'0 0.0
2017-Oct-05 03:30N 44°07' E 028°39'0 0.0
2017-Oct-05 03:00N 44°07' E 028°39'0 0.0
2017-Oct-05 02:30N 44°07' E 028°39'0 0.0
2017-Oct-05 02:00N 44°07' E 028°39'0 0.0
2017-Oct-05 01:30N 44°07' E 028°39'0 0.0
2017-Oct-05 01:00N 44°07' E 028°39'0 0.0
2017-Oct-05 00:30N 44°07' E 028°39'0 0.0
2017-Oct-05 00:00N 44°07' E 028°39'0 0.0
2017-Oct-04 23:30N 44°07' E 028°39'0 0.0
2017-Oct-04 23:01N 44°07' E 028°39'0 0.0
2017-Oct-04 22:30N 44°07' E 028°39'0 0.0
2017-Oct-04 22:00N 44°07' E 028°39'0 0.0
2017-Oct-04 21:31N 44°07' E 028°39'0 0.0
2017-Oct-04 21:00N 44°07' E 028°39'0 0.0
2017-Oct-04 20:30N 44°07' E 028°39'0 0.0
2017-Oct-04 20:01N 44°07' E 028°39'0 0.0
2017-Oct-04 19:30N 44°07' E 028°39'0 0.0
2017-Oct-04 19:00N 44°07' E 028°39'0 0.0
2017-Oct-04 18:30N 44°07' E 028°39'0 0.0
2017-Oct-04 18:01N 44°07' E 028°39'0 0.0
2017-Oct-04 17:30N 44°07' E 028°39'0 0.0
2017-Oct-04 17:00N 44°07' E 028°39'0 0.0
2017-Oct-04 16:30N 44°07' E 028°39'0 0.0
2017-Oct-04 16:00N 44°07' E 028°39'0 0.0
2017-Oct-04 15:31N 44°07' E 028°39'0 0.0
2017-Oct-04 15:00N 44°07' E 028°39'1 1.9
2017-Oct-04 14:30N 44°06' E 028°39'1 2.0
2017-Oct-04 14:00N 44°07' E 028°39'0 0.0
2017-Oct-04 13:30N 44°07' E 028°39'0 0.0
2017-Oct-04 13:00N 44°07' E 028°39'0 0.0
2017-Oct-04 12:30N 44°07' E 028°39'0 0.0
2017-Oct-04 12:00N 44°07' E 028°39'0 0.0
2017-Oct-04 11:30N 44°07' E 028°39'0 0.0
2017-Oct-04 11:01N 44°07' E 028°39'0 0.0
2017-Oct-04 10:31N 44°07' E 028°39'0 0.0
2017-Oct-04 10:01N 44°07' E 028°39'0 0.0
2017-Oct-04 09:30N 44°07' E 028°39'0 0.0
2017-Oct-04 09:01N 44°07' E 028°39'0 0.0
2017-Oct-04 08:31N 44°07' E 028°39'0 0.0
2017-Oct-04 08:00N 44°07' E 028°39'0 0.0
2017-Oct-04 07:30N 44°07' E 028°39'0 0.0
2017-Oct-04 07:00N 44°07' E 028°39'0 0.0
2017-Oct-04 06:30N 44°07' E 028°39'0 0.0
2017-Oct-04 06:00N 44°07' E 028°39'0 0.0
2017-Oct-04 05:30N 44°07' E 028°39'0 0.0
2017-Oct-04 05:00N 44°07' E 028°39'0 0.0
2017-Oct-04 04:30N 44°07' E 028°39'0 0.0
2017-Oct-04 04:00N 44°07' E 028°39'0 0.0
2017-Oct-04 03:31N 44°07' E 028°39'0 0.0
2017-Oct-04 03:00N 44°07' E 028°39'0 0.0
2017-Oct-04 02:30N 44°07' E 028°39'0 0.0
2017-Oct-04 02:00N 44°07' E 028°39'0 0.0
2017-Oct-04 01:30N 44°07' E 028°39'0 0.0
2017-Oct-04 01:00N 44°07' E 028°39'0 0.0
2017-Oct-04 00:30N 44°07' E 028°39'0 0.0
2017-Oct-04 00:00N 44°07' E 028°39'0 0.0
2017-Oct-03 23:31N 44°07' E 028°39'0 0.0
2017-Oct-03 23:00N 44°07' E 028°39'0 0.0
2017-Oct-03 22:30N 44°07' E 028°39'0 0.0
2017-Oct-03 22:01N 44°07' E 028°39'0 0.0
2017-Oct-03 21:31N 44°07' E 028°39'0 0.0
2017-Oct-03 21:01N 44°07' E 028°39'0 0.0
2017-Oct-03 20:30N 44°07' E 028°39'0 0.0
2017-Oct-03 20:00N 44°07' E 028°39'0 0.0
2017-Oct-03 19:31N 44°07' E 028°39'0 0.0
2017-Oct-03 19:00N 44°07' E 028°39'0 0.0
2017-Oct-03 18:30N 44°07' E 028°39'0 0.0
2017-Oct-03 18:00N 44°07' E 028°39'0 0.0
2017-Oct-03 17:30N 44°07' E 028°39'0 0.0
2017-Oct-03 17:01N 44°07' E 028°39'0 0.0
2017-Oct-03 16:30N 44°07' E 028°39'0 0.0
2017-Oct-03 16:00N 44°07' E 028°39'0 0.0
2017-Oct-03 15:30N 44°07' E 028°39'0 0.0
2017-Oct-03 15:00N 44°07' E 028°39'0 0.0
2017-Oct-03 14:01N 44°07' E 028°39'0 0.0
2017-Oct-03 13:30N 44°07' E 028°39'0 0.0
2017-Oct-03 13:01N 44°07' E 028°39'0 0.0
2017-Oct-03 12:30N 44°07' E 028°39'0 0.0
2017-Oct-03 12:01N 44°07' E 028°39'0 0.6
2017-Oct-03 11:30N 44°07' E 028°39'1 2.8
2017-Oct-03 11:01N 44°06' E 028°37'0 0.2
2017-Oct-03 10:31N 44°06' E 028°37'0 1.0
2017-Oct-03 10:00N 44°06' E 028°36'0 0.1
2017-Oct-03 09:30N 44°06' E 028°36'0 0.0
2017-Oct-03 09:00N 44°06' E 028°36'0 0.0
2017-Oct-03 08:30N 44°06' E 028°36'0 0.0
2017-Oct-03 08:00N 44°06' E 028°36'0 0.0
2017-Oct-03 07:30N 44°06' E 028°36'0 0.0
2017-Oct-03 07:00N 44°06' E 028°36'0 0.0
2017-Oct-03 06:31N 44°06' E 028°36'0 0.3
2017-Oct-03 06:00N 44°06' E 028°36'1 2.9
2017-Oct-03 05:30N 44°06' E 028°34'3 4.5
2017-Oct-03 04:57N 44°06' E 028°31'5 3.7
2017-Oct-03 03:39N 44°09' E 028°26'1 4.4
2017-Oct-03 03:24N 44°10' E 028°25'2 4.3
2017-Oct-03 03:00N 44°11' E 028°24'2 4.4
2017-Oct-03 02:30N 44°14' E 028°22'2 4.3
2017-Oct-03 02:00N 44°15' E 028°20'2 4.4
2017-Oct-03 01:30N 44°15' E 028°17'2 4.4
2017-Oct-03 01:00N 44°15' E 028°14'2 4.5
2017-Oct-03 00:31N 44°16' E 028°11'2 4.3
2017-Oct-03 00:00N 44°16' E 028°08'2 4.3
2017-Oct-02 23:30N 44°17' E 028°05'  
Track history (hours):
 
Tides and Currents Weather Stations Pressure Air Temp Water Temp Dewpoint Dewpoint Depression Visibility Wind Speed Wind Dir Waves Ship Positions

Kalocsa

Last reported at 2017-Oct-12 08:39 UTC. Time now 2017-Oct-18 02:32 UTC.
Position N 44°18' E 028°03'.

Length 267 m; draft 2.3 m.

Type: Ship. MMSI: 211064779.

Date/timePositionNaut miles runAvg speedWind from/ knotsBaromVisibWave heightAir tempDewpointWater temp
2017-Oct-12 08:39N 44°18' E 028°03'1 4.4
2017-Oct-12 08:30N 44°18' E 028°04'2 4.9
2017-Oct-12 08:00N 44°16' E 028°07'3 5.3
2017-Oct-12 07:30N 44°16' E 028°10'3 5.3
2017-Oct-12 07:00N 44°15' E 028°14'3 5.4
2017-Oct-12 06:30N 44°15' E 028°18'3 5.1
2017-Oct-12 06:00N 44°15' E 028°21'3 5.3
2017-Oct-12 05:30N 44°12' E 028°23'3 5.3
2017-Oct-12 05:00N 44°10' E 028°25'6 4.7
2017-Oct-12 03:44N 44°06' E 028°31'1 5.5
2017-Oct-12 03:30N 44°06' E 028°33'3 5.3
2017-Oct-12 03:00N 44°06' E 028°36'1 1.6
2017-Oct-12 02:30N 44°06' E 028°37'1 2.3
2017-Oct-12 02:00N 44°06' E 028°39'1 1.3
2017-Oct-12 01:30N 44°07' E 028°39'0 0.3
2017-Oct-12 01:00N 44°07' E 028°39'0 0.0
2017-Oct-12 00:30N 44°07' E 028°39'0 0.0
2017-Oct-12 00:00N 44°07' E 028°39'0 0.0
2017-Oct-11 23:30N 44°07' E 028°39'0 0.0
2017-Oct-11 23:00N 44°07' E 028°39'0 0.0
2017-Oct-11 22:30N 44°07' E 028°39'0 0.0
2017-Oct-11 22:01N 44°07' E 028°39'0 0.0
2017-Oct-11 21:30N 44°07' E 028°39'0 0.0
2017-Oct-11 21:00N 44°07' E 028°39'0 0.0
2017-Oct-11 20:30N 44°07' E 028°39'0 0.0
2017-Oct-11 20:00N 44°07' E 028°39'0 0.0
2017-Oct-11 19:30N 44°07' E 028°39'0 0.0
2017-Oct-11 19:01N 44°07' E 028°39'0 0.0
2017-Oct-11 18:30N 44°07' E 028°39'0 0.0
2017-Oct-11 18:00N 44°07' E 028°39'0 0.0
2017-Oct-11 17:31N 44°07' E 028°39'0 0.0
2017-Oct-11 17:00N 44°07' E 028°39'0 0.0
2017-Oct-11 00:00N 44°07' E 028°39'0 0.0
2017-Oct-10 23:30N 44°07' E 028°39'0 0.0
2017-Oct-10 23:00N 44°07' E 028°39'0 0.0
2017-Oct-10 22:30N 44°07' E 028°39'0 0.0
2017-Oct-10 22:00N 44°07' E 028°39'0 0.0
2017-Oct-10 21:31N 44°07' E 028°39'0 0.0
2017-Oct-10 21:00N 44°07' E 028°39'0 0.0
2017-Oct-10 20:31N 44°07' E 028°39'0 0.0
2017-Oct-10 20:00N 44°07' E 028°39'0 0.0
2017-Oct-10 19:30N 44°07' E 028°39'0 0.0
2017-Oct-10 19:00N 44°07' E 028°39'0 0.0
2017-Oct-10 18:30N 44°07' E 028°39'0 0.0
2017-Oct-10 18:00N 44°07' E 028°39'0 0.0
2017-Oct-10 17:31N 44°07' E 028°39'0 0.0
2017-Oct-10 17:00N 44°07' E 028°39'0 0.0
2017-Oct-10 16:30N 44°07' E 028°39'0 0.0
2017-Oct-10 16:00N 44°07' E 028°39'0 0.0
2017-Oct-10 15:30N 44°07' E 028°39'0 0.0
2017-Oct-10 15:00N 44°07' E 028°39'0 0.0
2017-Oct-10 14:00N 44°07' E 028°39'0 0.0
2017-Oct-10 13:30N 44°07' E 028°39'0 0.0
2017-Oct-10 13:00N 44°07' E 028°39'0 0.0
2017-Oct-10 12:30N 44°07' E 028°39'0 0.0
2017-Oct-10 12:00N 44°07' E 028°39'0 0.0
2017-Oct-10 11:30N 44°07' E 028°39'0 0.0
2017-Oct-10 11:00N 44°07' E 028°39'0 0.0
2017-Oct-10 10:30N 44°07' E 028°39'0 0.0
2017-Oct-10 10:00N 44°07' E 028°39'0 0.0
2017-Oct-10 09:30N 44°07' E 028°39'0 0.0
2017-Oct-10 09:00N 44°07' E 028°39'0 0.0
2017-Oct-10 08:30N 44°07' E 028°39'0 0.0
2017-Oct-10 08:00N 44°07' E 028°39'0 0.2
2017-Oct-10 07:30N 44°07' E 028°39'1 1.6
2017-Oct-10 07:01N 44°06' E 028°39'1 2.5
2017-Oct-10 06:30N 44°06' E 028°37'0 0.3
2017-Oct-10 06:00N 44°06' E 028°37'2 3.4
2017-Oct-10 05:30N 44°06' E 028°35'3 5.2
2017-Oct-10 04:59N 44°06' E 028°31'3 4.9
2017-Oct-10 04:21N 44°07' E 028°27'2 5.5
2017-Oct-10 03:57N 44°09' E 028°26'2 5.3
2017-Oct-10 03:30N 44°11' E 028°24'3 5.3
2017-Oct-10 03:00N 44°13' E 028°23'3 5.0
2017-Oct-10 02:31N 44°15' E 028°20'3 5.4
2017-Oct-10 02:00N 44°15' E 028°16'3 5.3
2017-Oct-10 01:31N 44°16' E 028°12'3 5.3
2017-Oct-10 01:00N 44°16' E 028°09'3 5.3
2017-Oct-10 00:30N 44°17' E 028°05'6 2.7
2017-Oct-09 22:16N 44°22' E 028°02'0 0.0
2017-Oct-09 21:55N 44°22' E 028°02'0 0.1
2017-Oct-09 21:30N 44°22' E 028°02'0 0.9
2017-Oct-09 20:56N 44°23' E 028°02'4 3.1
2017-Oct-09 19:39N 44°19' E 028°03'0 2.7
2017-Oct-09 19:29N 44°18' E 028°03'2 5.2
2017-Oct-09 19:00N 44°16' E 028°05'3 5.5
2017-Oct-09 18:30N 44°16' E 028°09'3 5.3
2017-Oct-09 18:01N 44°16' E 028°13'3 5.4
2017-Oct-09 17:30N 44°15' E 028°17'3 5.3
2017-Oct-09 17:00N 44°15' E 028°20'3 5.3
2017-Oct-09 16:30N 44°13' E 028°23'3 5.3
2017-Oct-09 16:00N 44°11' E 028°24'6 4.8
2017-Oct-09 14:40N 44°06' E 028°30'1 5.4
2017-Oct-09 14:29N 44°06' E 028°32'3 5.5
2017-Oct-09 14:01N 44°06' E 028°35'1 2.7
2017-Oct-09 13:30N 44°06' E 028°37'0 0.8
2017-Oct-09 13:01N 44°06' E 028°38'0 0.0
2017-Oct-09 12:30N 44°06' E 028°38'0 0.6
2017-Oct-09 12:01N 44°06' E 028°38'1 2.3
2017-Oct-09 11:30N 44°07' E 028°39'0 0.0
2017-Oct-09 11:00N 44°07' E 028°39'0 0.0
2017-Oct-09 10:30N 44°07' E 028°39'0 0.0
2017-Oct-09 10:00N 44°07' E 028°39'0 0.0
2017-Oct-09 09:30N 44°07' E 028°39'0 0.0
2017-Oct-09 09:00N 44°07' E 028°39'0 0.3
2017-Oct-09 08:31N 44°07' E 028°39'0 0.0
2017-Oct-09 08:00N 44°07' E 028°39'0 0.0
2017-Oct-09 07:30N 44°07' E 028°39'0 0.0
2017-Oct-09 07:00N 44°07' E 028°39'0 0.0
2017-Oct-09 06:30N 44°07' E 028°39'0 0.0
2017-Oct-09 06:00N 44°07' E 028°39'0 0.0
2017-Oct-09 05:30N 44°07' E 028°39'0 0.0
2017-Oct-09 05:01N 44°07' E 028°39'0 0.0
2017-Oct-09 04:30N 44°07' E 028°39'0 0.0
2017-Oct-09 04:00N 44°07' E 028°39'0 0.0
2017-Oct-09 03:31N 44°07' E 028°39'0 0.0
2017-Oct-09 03:00N 44°07' E 028°39'0 0.0
2017-Oct-09 02:30N 44°07' E 028°39'0 0.0
2017-Oct-09 02:00N 44°07' E 028°39'0 0.0
2017-Oct-09 01:30N 44°07' E 028°39'0 0.0
2017-Oct-09 01:00N 44°07' E 028°39'0 0.0
2017-Oct-09 00:30N 44°07' E 028°39'0 0.0
2017-Oct-09 00:00N 44°07' E 028°39'0 0.0
2017-Oct-08 23:30N 44°07' E 028°39'0 0.0
2017-Oct-08 23:00N 44°07' E 028°39'0 0.0
2017-Oct-08 22:30N 44°07' E 028°39'0 0.0
2017-Oct-08 22:01N 44°07' E 028°39'0 0.0
2017-Oct-08 21:31N 44°07' E 028°39'0 0.0
2017-Oct-08 21:00N 44°07' E 028°39'0 0.0
2017-Oct-08 20:30N 44°07' E 028°39'0 0.0
2017-Oct-08 20:00N 44°07' E 028°39'0 0.0
2017-Oct-08 19:30N 44°07' E 028°39'0 0.0
2017-Oct-08 19:00N 44°07' E 028°39'0 0.0
2017-Oct-08 18:30N 44°07' E 028°39'0 0.0
2017-Oct-08 18:00N 44°07' E 028°39'0 0.0
2017-Oct-08 17:30N 44°07' E 028°39'0 0.0
2017-Oct-08 17:00N 44°07' E 028°39'0 0.0
2017-Oct-08 16:31N 44°07' E 028°39'0 0.0
2017-Oct-08 16:00N 44°07' E 028°39'0 0.0
2017-Oct-08 15:30N 44°07' E 028°39'0 0.0
2017-Oct-08 15:00N 44°07' E 028°39'0 0.0
2017-Oct-08 14:31N 44°07' E 028°39'0 0.0
2017-Oct-08 14:01N 44°07' E 028°39'0 0.0
2017-Oct-08 13:30N 44°07' E 028°39'0 0.0
2017-Oct-08 13:01N 44°07' E 028°39'0 0.0
2017-Oct-08 12:30N 44°07' E 028°39'0 0.0
2017-Oct-08 12:01N 44°07' E 028°39'0 0.0
2017-Oct-08 11:30N 44°07' E 028°39'0 0.0
2017-Oct-08 11:01N 44°07' E 028°39'0 0.0
2017-Oct-08 10:31N 44°07' E 028°39'0 0.0
2017-Oct-08 10:00N 44°07' E 028°39'0 0.0
2017-Oct-08 09:30N 44°07' E 028°39'0 0.0
2017-Oct-08 09:00N 44°07' E 028°39'0 0.0
2017-Oct-08 08:31N 44°07' E 028°39'0 0.0
2017-Oct-08 08:01N 44°07' E 028°39'0 0.0
2017-Oct-08 07:30N 44°07' E 028°39'0 0.0
2017-Oct-08 07:01N 44°07' E 028°39'0 0.0
2017-Oct-08 06:30N 44°07' E 028°39'0 0.0
2017-Oct-08 06:00N 44°07' E 028°39'0 0.0
2017-Oct-08 05:30N 44°07' E 028°39'0 0.0
2017-Oct-08 05:00N 44°07' E 028°39'0 0.0
2017-Oct-08 04:30N 44°07' E 028°39'0 0.0
2017-Oct-08 04:00N 44°07' E 028°39'0 0.0
2017-Oct-08 03:31N 44°07' E 028°39'0 0.0
2017-Oct-08 03:00N 44°07' E 028°39'0 0.0
2017-Oct-08 02:31N 44°07' E 028°39'0 0.0
2017-Oct-08 02:01N 44°07' E 028°39'0 0.0
2017-Oct-08 01:30N 44°07' E 028°39'0 0.0
2017-Oct-08 01:01N 44°07' E 028°39'0 0.0
2017-Oct-08 00:31N 44°07' E 028°39'0 0.0
2017-Oct-08 00:00N 44°07' E 028°39'0 0.0
2017-Oct-07 23:30N 44°07' E 028°39'0 0.0
2017-Oct-07 23:00N 44°07' E 028°39'0 0.0
2017-Oct-07 22:30N 44°07' E 028°39'0 0.0
2017-Oct-07 22:00N 44°07' E 028°39'0 0.0
2017-Oct-07 21:30N 44°07' E 028°39'0 0.0
2017-Oct-07 21:00N 44°07' E 028°39'0 0.0
2017-Oct-07 20:30N 44°07' E 028°39'0 0.0
2017-Oct-07 20:00N 44°07' E 028°39'0 0.0
2017-Oct-07 19:31N 44°07' E 028°39'0 0.0
2017-Oct-07 19:00N 44°07' E 028°39'0 0.0
2017-Oct-07 18:30N 44°07' E 028°39'0 0.0
2017-Oct-07 18:00N 44°07' E 028°39'0 0.0
2017-Oct-07 17:30N 44°07' E 028°39'0 0.0
2017-Oct-07 17:00N 44°07' E 028°39'0 0.0
2017-Oct-07 16:30N 44°07' E 028°39'0 0.0
2017-Oct-07 16:00N 44°07' E 028°39'0 0.0
2017-Oct-07 15:30N 44°07' E 028°39'0 0.0
2017-Oct-07 15:00N 44°07' E 028°39'0 0.0
2017-Oct-07 14:30N 44°07' E 028°39'0 0.0
2017-Oct-07 14:00N 44°07' E 028°39'0 0.0
2017-Oct-07 13:30N 44°07' E 028°39'0 0.0
2017-Oct-07 13:00N 44°07' E 028°39'0 0.0
2017-Oct-07 12:30N 44°07' E 028°39'0 0.0
2017-Oct-07 12:00N 44°07' E 028°39'0 0.0
2017-Oct-07 11:30N 44°07' E 028°39'0 0.0
2017-Oct-07 11:00N 44°07' E 028°39'0 0.0
2017-Oct-07 10:30N 44°07' E 028°39'0 0.0
2017-Oct-07 10:00N 44°07' E 028°39'0 0.0
2017-Oct-07 09:30N 44°07' E 028°39'0 0.0
2017-Oct-07 09:00N 44°07' E 028°39'0 0.0
2017-Oct-07 08:30N 44°07' E 028°39'0 0.0
2017-Oct-07 08:00N 44°07' E 028°39'0 0.0
2017-Oct-07 07:30N 44°07' E 028°39'0 0.0
2017-Oct-07 07:01N 44°07' E 028°39'0 0.0
2017-Oct-07 06:30N 44°07' E 028°39'0 0.0
2017-Oct-07 06:01N 44°07' E 028°39'0 0.0
2017-Oct-07 05:30N 44°07' E 028°39'0 0.0
2017-Oct-07 05:00N 44°07' E 028°39'0 0.0
2017-Oct-07 04:31N 44°07' E 028°39'0 0.0
2017-Oct-07 04:00N 44°07' E 028°39'0 0.0
2017-Oct-07 03:30N 44°07' E 028°39'0 0.0
2017-Oct-07 03:00N 44°07' E 028°39'0 0.0
2017-Oct-07 02:30N 44°07' E 028°39'0 0.0
2017-Oct-07 02:00N 44°07' E 028°39'0 0.0
2017-Oct-07 01:30N 44°07' E 028°39'0 0.0
2017-Oct-07 01:00N 44°07' E 028°39'0 0.0
2017-Oct-07 00:30N 44°07' E 028°39'0 0.0
2017-Oct-07 00:00N 44°07' E 028°39'0 0.0
2017-Oct-06 23:30N 44°07' E 028°39'0 0.0
2017-Oct-06 23:00N 44°07' E 028°39'0 0.0
2017-Oct-06 22:30N 44°07' E 028°39'0 0.0
2017-Oct-06 22:00N 44°07' E 028°39'0 0.0
2017-Oct-06 21:31N 44°07' E 028°39'0 0.0
2017-Oct-06 21:00N 44°07' E 028°39'0 0.0
2017-Oct-06 20:30N 44°07' E 028°39'0 0.0
2017-Oct-06 20:00N 44°07' E 028°39'0 0.0
2017-Oct-06 19:30N 44°07' E 028°39'0 0.0
2017-Oct-06 19:00N 44°07' E 028°39'0 0.0
2017-Oct-06 18:30N 44°07' E 028°39'0 0.0
2017-Oct-06 18:00N 44°07' E 028°39'0 0.0
2017-Oct-06 17:30N 44°07' E 028°39'0 0.0
2017-Oct-06 17:00N 44°07' E 028°39'0 0.0
2017-Oct-06 16:30N 44°07' E 028°39'0 0.0
2017-Oct-06 16:01N 44°07' E 028°39'0 0.0
2017-Oct-06 15:30N 44°07' E 028°39'0 0.0
2017-Oct-06 15:00N 44°07' E 028°39'0 0.0
2017-Oct-06 14:30N 44°07' E 028°39'0 0.0
2017-Oct-06 14:00N 44°07' E 028°39'0 0.0
2017-Oct-06 13:30N 44°07' E 028°39'0 0.0
2017-Oct-06 13:00N 44°07' E 028°39'0 0.0
2017-Oct-06 12:30N 44°07' E 028°39'0 0.0
2017-Oct-06 12:00N 44°07' E 028°39'0 0.1
2017-Oct-06 11:31N 44°07' E 028°39'0 0.0
2017-Oct-06 11:00N 44°07' E 028°39'1 1.1
2017-Oct-06 10:30N 44°06' E 028°39'1 2.4
2017-Oct-06 10:00N 44°06' E 028°37'0 0.1
2017-Oct-06 09:30N 44°06' E 028°37'1 1.0
2017-Oct-06 09:00N 44°06' E 028°36'0 0.2
2017-Oct-06 08:30N 44°06' E 028°36'2 4.5
2017-Oct-06 08:00N 44°06' E 028°33'5 4.9
2017-Oct-06 07:01N 44°07' E 028°27'2 5.1
2017-Oct-06 06:34N 44°09' E 028°26'1 5.0
2017-Oct-06 06:22N 44°10' E 028°25'2 5.0
2017-Oct-06 05:57N 44°12' E 028°24'2 5.0
2017-Oct-06 05:30N 44°14' E 028°22'2 4.8
2017-Oct-06 05:01N 44°15' E 028°19'3 5.2
2017-Oct-06 04:26N 44°15' E 028°15'2 5.1
2017-Oct-06 04:00N 44°16' E 028°12'3 5.1
2017-Oct-06 03:31N 44°16' E 028°09'3 5.2
2017-Oct-06 03:00N 44°17' E 028°05'2 3.3
2017-Oct-06 02:30N 44°18' E 028°03'5 1.3
2017-Oct-05 22:56N 44°22' E 028°02'4 3.3
2017-Oct-05 21:46N 44°19' E 028°03'1 2.9
2017-Oct-05 21:27N 44°18' E 028°03'1 2.4
2017-Oct-05 20:59N 44°17' E 028°04'2 4.2
2017-Oct-05 20:31N 44°16' E 028°07'3 5.1
2017-Oct-05 20:00N 44°16' E 028°11'3 5.3
2017-Oct-05 19:31N 44°15' E 028°14'3 5.4
2017-Oct-05 19:00N 44°15' E 028°18'3 5.0
2017-Oct-05 18:31N 44°15' E 028°21'2 5.0
2017-Oct-05 18:00N 44°12' E 028°23'2 4.8
2017-Oct-05 17:30N 44°10' E 028°25'4 4.9
2017-Oct-05 16:46N 44°07' E 028°27'6 4.8
2017-Oct-05 15:30N 44°06' E 028°35'2 3.2
2017-Oct-05 15:00N 44°06' E 028°37'1 2.3
2017-Oct-05 14:30N 44°06' E 028°39'1 1.5
2017-Oct-05 14:00N 44°07' E 028°39'0 0.0
2017-Oct-05 13:30N 44°07' E 028°39'0 0.0
2017-Oct-05 13:00N 44°07' E 028°39'0 0.0
2017-Oct-05 12:31N 44°07' E 028°39'0 0.2
2017-Oct-05 12:00N 44°07' E 028°39'0 0.0
2017-Oct-05 11:31N 44°07' E 028°39'0 0.0
2017-Oct-05 11:00N 44°07' E 028°39'0 0.0
2017-Oct-05 10:30N 44°07' E 028°39'0 0.0
2017-Oct-05 10:01N 44°07' E 028°39'0 0.0
2017-Oct-05 09:30N 44°07' E 028°39'0 0.0
2017-Oct-05 09:00N 44°07' E 028°39'0 0.0
2017-Oct-05 08:30N 44°07' E 028°39'0 0.0
2017-Oct-05 08:01N 44°07' E 028°39'0 0.0
2017-Oct-05 07:31N 44°07' E 028°39'0 0.0
2017-Oct-05 07:00N 44°07' E 028°39'0 0.0
2017-Oct-05 06:30N 44°07' E 028°39'0 0.0
2017-Oct-05 06:00N 44°07' E 028°39'0 0.0
2017-Oct-05 05:30N 44°07' E 028°39'0 0.0
2017-Oct-05 05:00N 44°07' E 028°39'0 0.0
2017-Oct-05 04:30N 44°07' E 028°39'0 0.0
2017-Oct-05 04:01N 44°07' E 028°39'0 0.0
2017-Oct-05 03:30N 44°07' E 028°39'0 0.0
2017-Oct-05 03:00N 44°07' E 028°39'0 0.0
2017-Oct-05 02:30N 44°07' E 028°39'0 0.0
2017-Oct-05 02:00N 44°07' E 028°39'0 0.0
2017-Oct-05 01:30N 44°07' E 028°39'0 0.0
2017-Oct-05 01:00N 44°07' E 028°39'0 0.0
2017-Oct-05 00:30N 44°07' E 028°39'0 0.0
2017-Oct-05 00:00N 44°07' E 028°39'0 0.0
2017-Oct-04 23:30N 44°07' E 028°39'0 0.0
2017-Oct-04 23:01N 44°07' E 028°39'0 0.0
2017-Oct-04 22:30N 44°07' E 028°39'0 0.0
2017-Oct-04 22:00N 44°07' E 028°39'0 0.0
2017-Oct-04 21:31N 44°07' E 028°39'0 0.0
2017-Oct-04 21:00N 44°07' E 028°39'0 0.0
2017-Oct-04 20:30N 44°07' E 028°39'0 0.0
2017-Oct-04 20:01N 44°07' E 028°39'0 0.0
2017-Oct-04 19:30N 44°07' E 028°39'0 0.0
2017-Oct-04 19:00N 44°07' E 028°39'0 0.0
2017-Oct-04 18:30N 44°07' E 028°39'0 0.0
2017-Oct-04 18:01N 44°07' E 028°39'0 0.0
2017-Oct-04 17:30N 44°07' E 028°39'0 0.0
2017-Oct-04 17:00N 44°07' E 028°39'0 0.0
2017-Oct-04 16:30N 44°07' E 028°39'0 0.0
2017-Oct-04 16:00N 44°07' E 028°39'0 0.0
2017-Oct-04 15:31N 44°07' E 028°39'0 0.0
2017-Oct-04 15:00N 44°07' E 028°39'1 1.9
2017-Oct-04 14:30N 44°06' E 028°39'1 2.0
2017-Oct-04 14:00N 44°07' E 028°39'0 0.0
2017-Oct-04 13:30N 44°07' E 028°39'0 0.0
2017-Oct-04 13:00N 44°07' E 028°39'0 0.0
2017-Oct-04 12:30N 44°07' E 028°39'0 0.0
2017-Oct-04 12:00N 44°07' E 028°39'0 0.0
2017-Oct-04 11:30N 44°07' E 028°39'0 0.0
2017-Oct-04 11:01N 44°07' E 028°39'0 0.0
2017-Oct-04 10:31N 44°07' E 028°39'0 0.0
2017-Oct-04 10:01N 44°07' E 028°39'0 0.0
2017-Oct-04 09:30N 44°07' E 028°39'0 0.0
2017-Oct-04 09:01N 44°07' E 028°39'0 0.0
2017-Oct-04 08:31N 44°07' E 028°39'0 0.0
2017-Oct-04 08:00N 44°07' E 028°39'0 0.0
2017-Oct-04 07:30N 44°07' E 028°39'0 0.0
2017-Oct-04 07:00N 44°07' E 028°39'0 0.0
2017-Oct-04 06:30N 44°07' E 028°39'0 0.0
2017-Oct-04 06:00N 44°07' E 028°39'0 0.0
2017-Oct-04 05:30N 44°07' E 028°39'0 0.0
2017-Oct-04 05:00N 44°07' E 028°39'0 0.0
2017-Oct-04 04:30N 44°07' E 028°39'0 0.0
2017-Oct-04 04:00N 44°07' E 028°39'0 0.0
2017-Oct-04 03:31N 44°07' E 028°39'0 0.0
2017-Oct-04 03:00N 44°07' E 028°39'0 0.0
2017-Oct-04 02:30N 44°07' E 028°39'0 0.0
2017-Oct-04 02:00N 44°07' E 028°39'0 0.0
2017-Oct-04 01:30N 44°07' E 028°39'0 0.0
2017-Oct-04 01:00N 44°07' E 028°39'0 0.0
2017-Oct-04 00:30N 44°07' E 028°39'0 0.0
2017-Oct-04 00:00N 44°07' E 028°39'0 0.0
2017-Oct-03 23:31N 44°07' E 028°39'0 0.0
2017-Oct-03 23:00N 44°07' E 028°39'0 0.0
2017-Oct-03 22:30N 44°07' E 028°39'0 0.0
2017-Oct-03 22:01N 44°07' E 028°39'0 0.0
2017-Oct-03 21:31N 44°07' E 028°39'0 0.0
2017-Oct-03 21:01N 44°07' E 028°39'0 0.0
2017-Oct-03 20:30N 44°07' E 028°39'0 0.0
2017-Oct-03 20:00N 44°07' E 028°39'0 0.0
2017-Oct-03 19:31N 44°07' E 028°39'0 0.0
2017-Oct-03 19:00N 44°07' E 028°39'0 0.0
2017-Oct-03 18:30N 44°07' E 028°39'0 0.0
2017-Oct-03 18:00N 44°07' E 028°39'0 0.0
2017-Oct-03 17:30N 44°07' E 028°39'0 0.0
2017-Oct-03 17:01N 44°07' E 028°39'0 0.0
2017-Oct-03 16:30N 44°07' E 028°39'0 0.0
2017-Oct-03 16:00N 44°07' E 028°39'0 0.0
2017-Oct-03 15:30N 44°07' E 028°39'0 0.0
2017-Oct-03 15:00N 44°07' E 028°39'0 0.0
2017-Oct-03 14:01N 44°07' E 028°39'0 0.0
2017-Oct-03 13:30N 44°07' E 028°39'0 0.0
2017-Oct-03 13:01N 44°07' E 028°39'0 0.0
2017-Oct-03 12:30N 44°07' E 028°39'0 0.0
2017-Oct-03 12:01N 44°07' E 028°39'0 0.6
2017-Oct-03 11:30N 44°07' E 028°39'1 2.8
2017-Oct-03 11:01N 44°06' E 028°37'0 0.2
2017-Oct-03 10:31N 44°06' E 028°37'0 1.0
2017-Oct-03 10:00N 44°06' E 028°36'0 0.1
2017-Oct-03 09:30N 44°06' E 028°36'0 0.0
2017-Oct-03 09:00N 44°06' E 028°36'0 0.0
2017-Oct-03 08:30N 44°06' E 028°36'0 0.0
2017-Oct-03 08:00N 44°06' E 028°36'0 0.0
2017-Oct-03 07:30N 44°06' E 028°36'0 0.0
2017-Oct-03 07:00N 44°06' E 028°36'0 0.0
2017-Oct-03 06:31N 44°06' E 028°36'0 0.3
2017-Oct-03 06:00N 44°06' E 028°36'1 2.9
2017-Oct-03 05:30N 44°06' E 028°34'3 4.5
2017-Oct-03 04:57N 44°06' E 028°31'5 3.7
2017-Oct-03 03:39N 44°09' E 028°26'1 4.4
2017-Oct-03 03:24N 44°10' E 028°25'2 4.3
2017-Oct-03 03:00N 44°11' E 028°24'2 4.4
2017-Oct-03 02:30N 44°14' E 028°22'2 4.3
2017-Oct-03 02:00N 44°15' E 028°20'2 4.4
2017-Oct-03 01:30N 44°15' E 028°17'2 4.4
2017-Oct-03 01:00N 44°15' E 028°14'2 4.5
2017-Oct-03 00:31N 44°16' E 028°11'2 4.3
2017-Oct-03 00:00N 44°16' E 028°08'2 4.3
2017-Oct-02 23:30N 44°17' E 028°05'  

Dump ship's entire track history